sensor_id;sensor_type;location;lat;lon;timestamp;P1;durP1;ratioP1;P2;durP2;ratioP2
76597;SDS011;65486;53.144;18.134;2023-04-24T00:00:26;16.50;;;12.30;;
76597;SDS011;65486;53.144;18.134;2023-04-24T00:03:13;15.70;;;12.30;;
76597;SDS011;65486;53.144;18.134;2023-04-24T00:05:40;18.80;;;14.60;;
76597;SDS011;65486;53.144;18.134;2023-04-24T00:08:07;17.70;;;14.30;;
76597;SDS011;65486;53.144;18.134;2023-04-24T00:10:37;16.60;;;11.40;;
76597;SDS011;65486;53.144;18.134;2023-04-24T00:13:03;15.20;;;11.70;;
76597;SDS011;65486;53.144;18.134;2023-04-24T00:15:30;15.50;;;11.50;;
76597;SDS011;65486;53.144;18.134;2023-04-24T00:17:58;14.00;;;9.80;;
76597;SDS011;65486;53.144;18.134;2023-04-24T00:20:25;13.30;;;9.90;;
76597;SDS011;65486;53.144;18.134;2023-04-24T00:22:54;12.50;;;9.60;;
76597;SDS011;65486;53.144;18.134;2023-04-24T00:25:22;12.10;;;8.10;;
76597;SDS011;65486;53.144;18.134;2023-04-24T00:27:49;11.30;;;8.40;;
76597;SDS011;65486;53.144;18.134;2023-04-24T00:30:16;12.10;;;9.20;;
76597;SDS011;65486;53.144;18.134;2023-04-24T00:32:43;15.00;;;10.50;;
76597;SDS011;65486;53.144;18.134;2023-04-24T00:35:10;12.90;;;9.40;;
76597;SDS011;65486;53.144;18.134;2023-04-24T00:37:37;13.70;;;9.60;;
76597;SDS011;65486;53.144;18.134;2023-04-24T00:40:04;12.90;;;10.10;;
76597;SDS011;65486;53.144;18.134;2023-04-24T00:42:32;10.80;;;8.50;;
76597;SDS011;65486;53.144;18.134;2023-04-24T00:44:59;13.10;;;10.20;;
76597;SDS011;65486;53.144;18.134;2023-04-24T00:47:27;12.10;;;9.30;;
76597;SDS011;65486;53.144;18.134;2023-04-24T00:49:55;12.70;;;9.10;;
76597;SDS011;65486;53.144;18.134;2023-04-24T00:52:22;11.40;;;8.60;;
76597;SDS011;65486;53.144;18.134;2023-04-24T00:54:50;11.70;;;8.80;;
76597;SDS011;65486;53.144;18.134;2023-04-24T00:57:17;14.40;;;10.00;;
76597;SDS011;65486;53.144;18.134;2023-04-24T00:59:47;13.80;;;9.90;;
76597;SDS011;65486;53.144;18.134;2023-04-24T01:02:14;15.20;;;10.40;;
76597;SDS011;65486;53.144;18.134;2023-04-24T01:04:42;17.20;;;12.70;;
76597;SDS011;65486;53.144;18.134;2023-04-24T01:07:09;17.00;;;11.80;;
76597;SDS011;65486;53.144;18.134;2023-04-24T01:09:37;15.30;;;10.70;;
76597;SDS011;65486;53.144;18.134;2023-04-24T01:12:08;13.60;;;9.80;;
76597;SDS011;65486;53.144;18.134;2023-04-24T01:14:37;13.90;;;9.30;;
76597;SDS011;65486;53.144;18.134;2023-04-24T01:17:04;13.80;;;10.00;;
76597;SDS011;65486;53.144;18.134;2023-04-24T01:19:32;13.40;;;10.10;;
76597;SDS011;65486;53.144;18.134;2023-04-24T01:21:59;14.70;;;10.70;;
76597;SDS011;65486;53.144;18.134;2023-04-24T01:24:29;13.90;;;9.40;;
76597;SDS011;65486;53.144;18.134;2023-04-24T01:26:56;17.60;;;10.70;;
76597;SDS011;65486;53.144;18.134;2023-04-24T01:29:23;16.50;;;11.60;;
76597;SDS011;65486;53.144;18.134;2023-04-24T01:31:50;16.80;;;12.00;;
76597;SDS011;65486;53.144;18.134;2023-04-24T01:34:17;14.60;;;9.70;;
76597;SDS011;65486;53.144;18.134;2023-04-24T01:36:45;14.30;;;10.60;;
76597;SDS011;65486;53.144;18.134;2023-04-24T01:39:13;14.80;;;9.60;;
76597;SDS011;65486;53.144;18.134;2023-04-24T01:41:40;16.10;;;10.00;;
76597;SDS011;65486;53.144;18.134;2023-04-24T01:44:07;18.40;;;11.80;;
76597;SDS011;65486;53.144;18.134;2023-04-24T01:46:36;15.90;;;11.30;;
76597;SDS011;65486;53.144;18.134;2023-04-24T01:49:04;19.20;;;11.90;;
76597;SDS011;65486;53.144;18.134;2023-04-24T01:51:31;16.60;;;11.10;;
76597;SDS011;65486;53.144;18.134;2023-04-24T01:53:58;20.50;;;12.00;;
76597;SDS011;65486;53.144;18.134;2023-04-24T01:56:25;19.40;;;11.60;;
76597;SDS011;65486;53.144;18.134;2023-04-24T01:58:52;21.40;;;13.80;;
76597;SDS011;65486;53.144;18.134;2023-04-24T02:01:23;16.80;;;11.40;;
76597;SDS011;65486;53.144;18.134;2023-04-24T02:03:51;17.70;;;11.60;;
76597;SDS011;65486;53.144;18.134;2023-04-24T02:06:18;19.30;;;12.70;;
76597;SDS011;65486;53.144;18.134;2023-04-24T02:08:46;18.50;;;12.50;;
76597;SDS011;65486;53.144;18.134;2023-04-24T02:11:14;19.80;;;12.30;;
76597;SDS011;65486;53.144;18.134;2023-04-24T02:13:41;18.00;;;12.30;;
76597;SDS011;65486;53.144;18.134;2023-04-24T02:16:08;24.40;;;13.30;;
76597;SDS011;65486;53.144;18.134;2023-04-24T02:18:37;24.00;;;13.90;;
76597;SDS011;65486;53.144;18.134;2023-04-24T02:21:05;21.10;;;13.00;;
76597;SDS011;65486;53.144;18.134;2023-04-24T02:23:32;20.10;;;12.60;;
76597;SDS011;65486;53.144;18.134;2023-04-24T02:25:59;21.70;;;14.10;;
76597;SDS011;65486;53.144;18.134;2023-04-24T02:28:26;21.20;;;13.30;;
76597;SDS011;65486;53.144;18.134;2023-04-24T02:30:56;23.00;;;14.40;;
76597;SDS011;65486;53.144;18.134;2023-04-24T02:33:25;23.90;;;14.90;;
76597;SDS011;65486;53.144;18.134;2023-04-24T02:35:53;24.50;;;15.40;;
76597;SDS011;65486;53.144;18.134;2023-04-24T02:38:21;21.20;;;13.70;;
76597;SDS011;65486;53.144;18.134;2023-04-24T02:40:49;26.40;;;14.00;;
76597;SDS011;65486;53.144;18.134;2023-04-24T02:43:17;25.90;;;14.60;;
76597;SDS011;65486;53.144;18.134;2023-04-24T02:45:45;26.50;;;14.00;;
76597;SDS011;65486;53.144;18.134;2023-04-24T02:48:21;24.40;;;14.10;;
76597;SDS011;65486;53.144;18.134;2023-04-24T02:50:49;27.50;;;15.70;;
76597;SDS011;65486;53.144;18.134;2023-04-24T02:53:17;32.40;;;17.00;;
76597;SDS011;65486;53.144;18.134;2023-04-24T02:55:44;28.00;;;17.50;;
76597;SDS011;65486;53.144;18.134;2023-04-24T02:58:12;25.10;;;14.70;;
76597;SDS011;65486;53.144;18.134;2023-04-24T03:00:39;22.00;;;14.70;;
76597;SDS011;65486;53.144;18.134;2023-04-24T03:03:07;22.80;;;13.80;;
76597;SDS011;65486;53.144;18.134;2023-04-24T03:05:34;27.40;;;14.60;;
76597;SDS011;65486;53.144;18.134;2023-04-24T03:08:01;24.40;;;14.70;;
76597;SDS011;65486;53.144;18.134;2023-04-24T03:10:28;25.90;;;15.40;;
76597;SDS011;65486;53.144;18.134;2023-04-24T03:12:55;29.20;;;17.50;;
76597;SDS011;65486;53.144;18.134;2023-04-24T03:15:22;26.60;;;16.20;;
76597;SDS011;65486;53.144;18.134;2023-04-24T03:17:49;28.60;;;17.00;;
76597;SDS011;65486;53.144;18.134;2023-04-24T03:20:16;27.30;;;17.60;;
76597;SDS011;65486;53.144;18.134;2023-04-24T03:22:43;31.90;;;16.30;;
76597;SDS011;65486;53.144;18.134;2023-04-24T03:25:10;27.70;;;17.20;;
76597;SDS011;65486;53.144;18.134;2023-04-24T03:27:37;24.60;;;14.50;;
76597;SDS011;65486;53.144;18.134;2023-04-24T03:30:11;28.20;;;16.60;;
76597;SDS011;65486;53.144;18.134;2023-04-24T03:32:46;25.30;;;15.30;;
76597;SDS011;65486;53.144;18.134;2023-04-24T03:35:14;25.60;;;15.90;;
76597;SDS011;65486;53.144;18.134;2023-04-24T03:37:42;25.20;;;16.10;;
76597;SDS011;65486;53.144;18.134;2023-04-24T03:40:27;29.40;;;17.90;;
76597;SDS011;65486;53.144;18.134;2023-04-24T03:42:56;27.00;;;15.60;;
76597;SDS011;65486;53.144;18.134;2023-04-24T03:45:23;23.50;;;14.20;;
76597;SDS011;65486;53.144;18.134;2023-04-24T03:47:54;25.30;;;16.00;;
76597;SDS011;65486;53.144;18.134;2023-04-24T03:50:21;27.30;;;17.00;;
76597;SDS011;65486;53.144;18.134;2023-04-24T03:52:49;27.50;;;16.20;;
76597;SDS011;65486;53.144;18.134;2023-04-24T03:55:24;26.00;;;14.90;;
76597;SDS011;65486;53.144;18.134;2023-04-24T03:57:51;27.00;;;14.90;;
76597;SDS011;65486;53.144;18.134;2023-04-24T04:00:22;25.70;;;16.00;;
76597;SDS011;65486;53.144;18.134;2023-04-24T04:02:52;26.60;;;15.80;;
76597;SDS011;65486;53.144;18.134;2023-04-24T04:05:19;28.20;;;16.70;;
76597;SDS011;65486;53.144;18.134;2023-04-24T04:07:46;25.30;;;15.80;;
76597;SDS011;65486;53.144;18.134;2023-04-24T04:10:14;25.40;;;15.90;;
76597;SDS011;65486;53.144;18.134;2023-04-24T04:12:41;24.20;;;15.30;;
76597;SDS011;65486;53.144;18.134;2023-04-24T04:15:10;24.50;;;14.80;;
76597;SDS011;65486;53.144;18.134;2023-04-24T04:17:39;26.70;;;15.90;;
76597;SDS011;65486;53.144;18.134;2023-04-24T04:20:07;27.10;;;15.70;;
76597;SDS011;65486;53.144;18.134;2023-04-24T04:22:36;21.90;;;13.70;;
76597;SDS011;65486;53.144;18.134;2023-04-24T04:25:06;24.70;;;15.50;;
76597;SDS011;65486;53.144;18.134;2023-04-24T04:27:34;23.30;;;15.20;;
76597;SDS011;65486;53.144;18.134;2023-04-24T04:30:08;24.80;;;15.00;;
76597;SDS011;65486;53.144;18.134;2023-04-24T04:32:46;24.60;;;14.40;;
76597;SDS011;65486;53.144;18.134;2023-04-24T04:35:13;23.80;;;15.30;;
76597;SDS011;65486;53.144;18.134;2023-04-24T04:37:41;26.80;;;15.40;;
76597;SDS011;65486;53.144;18.134;2023-04-24T04:40:17;24.70;;;15.30;;
76597;SDS011;65486;53.144;18.134;2023-04-24T04:42:57;29.90;;;17.90;;
76597;SDS011;65486;53.144;18.134;2023-04-24T04:45:25;30.20;;;17.90;;
76597;SDS011;65486;53.144;18.134;2023-04-24T04:48:22;26.50;;;16.20;;
76597;SDS011;65486;53.144;18.134;2023-04-24T04:50:49;42.10;;;23.70;;
76597;SDS011;65486;53.144;18.134;2023-04-24T04:53:16;33.00;;;19.80;;
76597;SDS011;65486;53.144;18.134;2023-04-24T04:55:43;29.60;;;18.30;;
76597;SDS011;65486;53.144;18.134;2023-04-24T04:58:13;30.50;;;17.30;;
76597;SDS011;65486;53.144;18.134;2023-04-24T05:00:41;29.60;;;18.60;;
76597;SDS011;65486;53.144;18.134;2023-04-24T05:03:18;29.60;;;18.10;;
76597;SDS011;65486;53.144;18.134;2023-04-24T05:05:45;26.80;;;17.70;;
76597;SDS011;65486;53.144;18.134;2023-04-24T05:08:17;25.30;;;14.70;;
76597;SDS011;65486;53.144;18.134;2023-04-24T05:10:44;20.80;;;12.60;;
76597;SDS011;65486;53.144;18.134;2023-04-24T05:13:12;24.80;;;15.30;;
76597;SDS011;65486;53.144;18.134;2023-04-24T05:15:41;22.90;;;15.80;;
76597;SDS011;65486;53.144;18.134;2023-04-24T05:18:14;25.50;;;15.60;;
76597;SDS011;65486;53.144;18.134;2023-04-24T05:20:42;24.90;;;16.60;;
76597;SDS011;65486;53.144;18.134;2023-04-24T05:23:30;22.80;;;14.80;;
76597;SDS011;65486;53.144;18.134;2023-04-24T05:25:58;21.50;;;14.60;;
76597;SDS011;65486;53.144;18.134;2023-04-24T05:28:25;23.30;;;15.80;;
76597;SDS011;65486;53.144;18.134;2023-04-24T05:31:02;25.10;;;17.10;;
76597;SDS011;65486;53.144;18.134;2023-04-24T05:33:29;31.30;;;18.30;;
76597;SDS011;65486;53.144;18.134;2023-04-24T05:35:58;32.00;;;19.80;;
76597;SDS011;65486;53.144;18.134;2023-04-24T05:38:25;37.30;;;22.40;;
76597;SDS011;65486;53.144;18.134;2023-04-24T05:40:55;45.10;;;25.10;;
76597;SDS011;65486;53.144;18.134;2023-04-24T05:43:28;48.10;;;26.70;;
76597;SDS011;65486;53.144;18.134;2023-04-24T05:45:55;46.80;;;26.00;;
76597;SDS011;65486;53.144;18.134;2023-04-24T05:48:22;48.40;;;26.10;;
76597;SDS011;65486;53.144;18.134;2023-04-24T05:50:50;38.80;;;24.10;;
76597;SDS011;65486;53.144;18.134;2023-04-24T05:53:18;40.70;;;24.10;;
76597;SDS011;65486;53.144;18.134;2023-04-24T05:55:46;30.70;;;20.30;;
76597;SDS011;65486;53.144;18.134;2023-04-24T05:58:14;27.50;;;17.30;;
76597;SDS011;65486;53.144;18.134;2023-04-24T06:00:41;22.80;;;15.40;;
76597;SDS011;65486;53.144;18.134;2023-04-24T06:03:11;23.00;;;16.20;;
76597;SDS011;65486;53.144;18.134;2023-04-24T06:05:38;24.40;;;15.60;;
76597;SDS011;65486;53.144;18.134;2023-04-24T06:08:07;20.80;;;13.10;;
76597;SDS011;65486;53.144;18.134;2023-04-24T06:10:36;22.00;;;15.40;;
76597;SDS011;65486;53.144;18.134;2023-04-24T06:13:04;22.40;;;15.30;;
76597;SDS011;65486;53.144;18.134;2023-04-24T06:15:33;21.20;;;13.80;;
76597;SDS011;65486;53.144;18.134;2023-04-24T06:18:04;23.00;;;16.20;;
76597;SDS011;65486;53.144;18.134;2023-04-24T06:20:31;20.00;;;14.10;;
76597;SDS011;65486;53.144;18.134;2023-04-24T06:22:58;21.30;;;15.10;;
76597;SDS011;65486;53.144;18.134;2023-04-24T06:25:26;22.30;;;15.10;;
76597;SDS011;65486;53.144;18.134;2023-04-24T06:27:53;25.50;;;14.70;;
76597;SDS011;65486;53.144;18.134;2023-04-24T06:30:21;21.90;;;14.40;;
76597;SDS011;65486;53.144;18.134;2023-04-24T06:32:48;23.30;;;15.00;;
76597;SDS011;65486;53.144;18.134;2023-04-24T06:35:18;22.90;;;15.20;;
76597;SDS011;65486;53.144;18.134;2023-04-24T06:37:46;19.80;;;12.40;;
76597;SDS011;65486;53.144;18.134;2023-04-24T06:40:14;21.60;;;14.00;;
76597;SDS011;65486;53.144;18.134;2023-04-24T06:42:45;19.20;;;13.70;;
76597;SDS011;65486;53.144;18.134;2023-04-24T06:45:13;20.80;;;13.10;;
76597;SDS011;65486;53.144;18.134;2023-04-24T06:47:41;18.10;;;12.70;;
76597;SDS011;65486;53.144;18.134;2023-04-24T06:50:08;18.60;;;13.20;;
76597;SDS011;65486;53.144;18.134;2023-04-24T06:52:36;21.50;;;13.10;;
76597;SDS011;65486;53.144;18.134;2023-04-24T06:55:03;19.00;;;13.30;;
76597;SDS011;65486;53.144;18.134;2023-04-24T06:57:32;21.10;;;12.90;;
76597;SDS011;65486;53.144;18.134;2023-04-24T06:59:59;18.10;;;13.80;;
76597;SDS011;65486;53.144;18.134;2023-04-24T07:02:29;18.70;;;12.50;;
76597;SDS011;65486;53.144;18.134;2023-04-24T07:04:56;19.70;;;12.30;;
76597;SDS011;65486;53.144;18.134;2023-04-24T07:07:26;18.80;;;12.20;;
76597;SDS011;65486;53.144;18.134;2023-04-24T07:09:55;17.70;;;11.60;;
76597;SDS011;65486;53.144;18.134;2023-04-24T07:12:24;16.70;;;11.90;;
76597;SDS011;65486;53.144;18.134;2023-04-24T07:14:52;16.90;;;11.30;;
76597;SDS011;65486;53.144;18.134;2023-04-24T07:17:19;15.90;;;10.60;;
76597;SDS011;65486;53.144;18.134;2023-04-24T07:19:46;15.60;;;11.70;;
76597;SDS011;65486;53.144;18.134;2023-04-24T07:22:13;15.80;;;10.50;;
76597;SDS011;65486;53.144;18.134;2023-04-24T07:24:43;14.00;;;9.90;;
76597;SDS011;65486;53.144;18.134;2023-04-24T07:27:12;15.50;;;10.70;;
76597;SDS011;65486;53.144;18.134;2023-04-24T07:29:41;14.60;;;9.50;;
76597;SDS011;65486;53.144;18.134;2023-04-24T07:32:12;14.40;;;9.40;;
76597;SDS011;65486;53.144;18.134;2023-04-24T07:34:39;15.00;;;9.90;;
76597;SDS011;65486;53.144;18.134;2023-04-24T07:37:10;11.80;;;7.50;;
76597;SDS011;65486;53.144;18.134;2023-04-24T07:39:36;15.20;;;9.30;;
76597;SDS011;65486;53.144;18.134;2023-04-24T07:42:03;14.10;;;9.40;;
76597;SDS011;65486;53.144;18.134;2023-04-24T07:44:33;16.00;;;9.20;;
76597;SDS011;65486;53.144;18.134;2023-04-24T07:47:00;13.70;;;9.80;;
76597;SDS011;65486;53.144;18.134;2023-04-24T07:49:28;14.70;;;9.50;;
76597;SDS011;65486;53.144;18.134;2023-04-24T07:51:55;13.20;;;9.60;;
76597;SDS011;65486;53.144;18.134;2023-04-24T07:54:25;13.90;;;9.50;;
76597;SDS011;65486;53.144;18.134;2023-04-24T07:56:52;13.50;;;9.80;;
76597;SDS011;65486;53.144;18.134;2023-04-24T07:59:22;13.30;;;10.00;;
76597;SDS011;65486;53.144;18.134;2023-04-24T08:01:48;13.60;;;8.90;;
76597;SDS011;65486;53.144;18.134;2023-04-24T08:04:16;14.50;;;9.80;;
76597;SDS011;65486;53.144;18.134;2023-04-24T08:06:44;11.50;;;8.60;;
76597;SDS011;65486;53.144;18.134;2023-04-24T08:09:11;14.70;;;8.80;;
76597;SDS011;65486;53.144;18.134;2023-04-24T08:11:38;14.00;;;8.80;;
76597;SDS011;65486;53.144;18.134;2023-04-24T08:14:07;12.40;;;8.80;;
76597;SDS011;65486;53.144;18.134;2023-04-24T08:16:36;14.60;;;8.80;;
76597;SDS011;65486;53.144;18.134;2023-04-24T08:19:06;10.20;;;7.10;;
76597;SDS011;65486;53.144;18.134;2023-04-24T08:21:35;11.00;;;7.50;;
76597;SDS011;65486;53.144;18.134;2023-04-24T08:24:15;13.80;;;8.40;;
76597;SDS011;65486;53.144;18.134;2023-04-24T08:26:43;12.10;;;7.30;;
76597;SDS011;65486;53.144;18.134;2023-04-24T08:29:10;10.40;;;8.10;;
76597;SDS011;65486;53.144;18.134;2023-04-24T08:31:38;9.50;;;6.60;;
76597;SDS011;65486;53.144;18.134;2023-04-24T08:34:05;9.60;;;7.50;;
76597;SDS011;65486;53.144;18.134;2023-04-24T08:36:33;10.80;;;7.50;;
76597;SDS011;65486;53.144;18.134;2023-04-24T08:39:01;12.30;;;8.00;;
76597;SDS011;65486;53.144;18.134;2023-04-24T08:41:29;10.40;;;7.00;;
76597;SDS011;65486;53.144;18.134;2023-04-24T08:43:57;9.80;;;7.10;;
76597;SDS011;65486;53.144;18.134;2023-04-24T08:46:26;10.20;;;7.10;;
76597;SDS011;65486;53.144;18.134;2023-04-24T08:48:53;11.90;;;7.30;;
76597;SDS011;65486;53.144;18.134;2023-04-24T08:51:20;10.00;;;6.60;;
76597;SDS011;65486;53.144;18.134;2023-04-24T08:53:49;10.80;;;6.00;;
76597;SDS011;65486;53.144;18.134;2023-04-24T08:56:20;9.90;;;6.20;;
76597;SDS011;65486;53.144;18.134;2023-04-24T08:58:51;9.20;;;6.70;;
76597;SDS011;65486;53.144;18.134;2023-04-24T09:01:20;9.80;;;7.10;;
76597;SDS011;65486;53.144;18.134;2023-04-24T09:03:48;9.70;;;6.10;;
76597;SDS011;65486;53.144;18.134;2023-04-24T09:06:18;10.60;;;5.90;;
76597;SDS011;65486;53.144;18.134;2023-04-24T09:08:48;10.40;;;6.70;;
76597;SDS011;65486;53.144;18.134;2023-04-24T09:11:21;11.60;;;7.10;;
76597;SDS011;65486;53.144;18.134;2023-04-24T09:13:50;9.00;;;6.00;;
76597;SDS011;65486;53.144;18.134;2023-04-24T09:16:18;10.40;;;8.00;;
76597;SDS011;65486;53.144;18.134;2023-04-24T09:18:46;11.90;;;7.40;;
76597;SDS011;65486;53.144;18.134;2023-04-24T09:21:13;10.80;;;8.30;;
76597;SDS011;65486;53.144;18.134;2023-04-24T09:23:41;10.50;;;8.50;;
76597;SDS011;65486;53.144;18.134;2023-04-24T09:26:09;10.90;;;8.30;;
76597;SDS011;65486;53.144;18.134;2023-04-24T09:28:38;13.20;;;8.50;;
76597;SDS011;65486;53.144;18.134;2023-04-24T09:31:14;12.30;;;9.40;;
76597;SDS011;65486;53.144;18.134;2023-04-24T09:33:54;12.80;;;8.80;;
76597;SDS011;65486;53.144;18.134;2023-04-24T09:36:32;11.90;;;8.80;;
76597;SDS011;65486;53.144;18.134;2023-04-24T09:39:07;11.70;;;8.70;;
76597;SDS011;65486;53.144;18.134;2023-04-24T09:44:34;9.60;;;7.50;;
76597;SDS011;65486;53.144;18.134;2023-04-24T09:47:02;11.50;;;8.30;;
76597;SDS011;65486;53.144;18.134;2023-04-24T09:49:35;12.10;;;8.30;;
76597;SDS011;65486;53.144;18.134;2023-04-24T09:52:07;9.70;;;6.80;;
76597;SDS011;65486;53.144;18.134;2023-04-24T09:54:39;12.70;;;8.20;;
76597;SDS011;65486;53.144;18.134;2023-04-24T09:57:09;10.60;;;7.10;;
76597;SDS011;65486;53.144;18.134;2023-04-24T09:59:41;11.30;;;7.90;;
76597;SDS011;65486;53.144;18.134;2023-04-24T10:02:19;12.70;;;8.50;;
76597;SDS011;65486;53.144;18.134;2023-04-24T10:04:56;9.50;;;7.30;;
76597;SDS011;65486;53.144;18.134;2023-04-24T10:07:28;9.40;;;7.20;;
76597;SDS011;65486;53.144;18.134;2023-04-24T10:09:56;10.60;;;7.20;;
76597;SDS011;65486;53.144;18.134;2023-04-24T10:12:23;9.00;;;6.80;;
76597;SDS011;65486;53.144;18.134;2023-04-24T10:14:51;11.00;;;6.60;;
76597;SDS011;65486;53.144;18.134;2023-04-24T10:17:19;8.80;;;7.00;;
76597;SDS011;65486;53.144;18.134;2023-04-24T10:19:47;9.40;;;6.10;;
76597;SDS011;65486;53.144;18.134;2023-04-24T10:22:15;8.10;;;5.80;;
76597;SDS011;65486;53.144;18.134;2023-04-24T10:24:44;9.30;;;6.70;;
76597;SDS011;65486;53.144;18.134;2023-04-24T10:27:14;11.10;;;7.60;;
76597;SDS011;65486;53.144;18.134;2023-04-24T10:29:42;10.20;;;7.00;;
76597;SDS011;65486;53.144;18.134;2023-04-24T10:32:10;8.60;;;6.80;;
76597;SDS011;65486;53.144;18.134;2023-04-24T10:34:38;14.40;;;7.50;;
76597;SDS011;65486;53.144;18.134;2023-04-24T10:37:06;10.90;;;6.30;;
76597;SDS011;65486;53.144;18.134;2023-04-24T10:39:33;10.50;;;7.80;;
76597;SDS011;65486;53.144;18.134;2023-04-24T10:42:13;10.10;;;6.30;;
76597;SDS011;65486;53.144;18.134;2023-04-24T10:44:43;12.70;;;7.20;;
76597;SDS011;65486;53.144;18.134;2023-04-24T10:47:13;10.30;;;7.60;;
76597;SDS011;65486;53.144;18.134;2023-04-24T10:49:40;13.40;;;7.80;;
76597;SDS011;65486;53.144;18.134;2023-04-24T10:52:08;9.70;;;6.80;;
76597;SDS011;65486;53.144;18.134;2023-04-24T10:54:36;9.40;;;6.60;;
76597;SDS011;65486;53.144;18.134;2023-04-24T11:00:13;10.40;;;7.20;;
76597;SDS011;65486;53.144;18.134;2023-04-24T11:02:46;10.10;;;6.80;;
76597;SDS011;65486;53.144;18.134;2023-04-24T11:08:27;9.50;;;8.10;;
76597;SDS011;65486;53.144;18.134;2023-04-24T11:11:14;11.60;;;9.50;;
76597;SDS011;65486;53.144;18.134;2023-04-24T11:19:02;14.30;;;10.40;;
76597;SDS011;65486;53.144;18.134;2023-04-24T11:24:25;16.10;;;8.90;;
76597;SDS011;65486;53.144;18.134;2023-04-24T11:26:54;13.70;;;10.50;;
76597;SDS011;65486;53.144;18.134;2023-04-24T11:29:37;13.40;;;9.80;;
76597;SDS011;65486;53.144;18.134;2023-04-24T11:37:40;12.70;;;8.90;;
76597;SDS011;65486;53.144;18.134;2023-04-24T11:40:12;14.00;;;9.80;;
76597;SDS011;65486;53.144;18.134;2023-04-24T11:42:44;12.10;;;8.50;;
76597;SDS011;65486;53.144;18.134;2023-04-24T11:45:14;11.10;;;9.10;;
76597;SDS011;65486;53.144;18.134;2023-04-24T11:47:43;16.70;;;9.90;;
76597;SDS011;65486;53.144;18.134;2023-04-24T11:50:11;13.20;;;9.60;;
76597;SDS011;65486;53.144;18.134;2023-04-24T11:52:41;14.50;;;10.70;;
76597;SDS011;65486;53.144;18.134;2023-04-24T11:55:26;15.30;;;9.70;;
76597;SDS011;65486;53.144;18.134;2023-04-24T11:57:58;14.50;;;10.60;;
76597;SDS011;65486;53.144;18.134;2023-04-24T12:00:28;15.10;;;10.40;;
76597;SDS011;65486;53.144;18.134;2023-04-24T12:03:07;12.60;;;9.20;;
76597;SDS011;65486;53.144;18.134;2023-04-24T12:05:38;13.30;;;8.90;;
76597;SDS011;65486;53.144;18.134;2023-04-24T12:08:06;13.00;;;9.70;;
76597;SDS011;65486;53.144;18.134;2023-04-24T12:10:33;14.00;;;9.60;;
76597;SDS011;65486;53.144;18.134;2023-04-24T12:13:01;12.80;;;9.70;;
76597;SDS011;65486;53.144;18.134;2023-04-24T12:15:28;13.70;;;8.50;;
76597;SDS011;65486;53.144;18.134;2023-04-24T12:17:55;12.40;;;9.30;;
76597;SDS011;65486;53.144;18.134;2023-04-24T12:20:28;12.80;;;9.00;;
76597;SDS011;65486;53.144;18.134;2023-04-24T12:22:59;12.20;;;8.70;;
76597;SDS011;65486;53.144;18.134;2023-04-24T12:25:28;11.60;;;9.50;;
76597;SDS011;65486;53.144;18.134;2023-04-24T12:28:12;11.30;;;8.10;;
76597;SDS011;65486;53.144;18.134;2023-04-24T12:30:45;13.80;;;8.80;;
76597;SDS011;65486;53.144;18.134;2023-04-24T12:33:21;12.20;;;8.60;;
76597;SDS011;65486;53.144;18.134;2023-04-24T12:35:54;12.00;;;7.80;;
76597;SDS011;65486;53.144;18.134;2023-04-24T12:38:24;10.10;;;7.00;;
76597;SDS011;65486;53.144;18.134;2023-04-24T12:41:03;10.20;;;6.10;;
76597;SDS011;65486;53.144;18.134;2023-04-24T12:43:35;9.90;;;5.70;;
76597;SDS011;65486;53.144;18.134;2023-04-24T12:46:35;8.70;;;4.70;;
76597;SDS011;65486;53.144;18.134;2023-04-24T12:49:03;8.30;;;4.80;;
76597;SDS011;65486;53.144;18.134;2023-04-24T12:51:30;6.90;;;5.20;;
76597;SDS011;65486;53.144;18.134;2023-04-24T12:53:59;8.90;;;4.90;;
76597;SDS011;65486;53.144;18.134;2023-04-24T12:56:27;6.40;;;4.10;;
76597;SDS011;65486;53.144;18.134;2023-04-24T12:58:54;5.80;;;4.30;;
76597;SDS011;65486;53.144;18.134;2023-04-24T13:01:22;7.50;;;4.40;;
76597;SDS011;65486;53.144;18.134;2023-04-24T13:03:54;5.70;;;4.40;;
76597;SDS011;65486;53.144;18.134;2023-04-24T13:06:22;6.70;;;4.70;;
76597;SDS011;65486;53.144;18.134;2023-04-24T13:08:52;7.20;;;4.20;;
76597;SDS011;65486;53.144;18.134;2023-04-24T13:11:20;5.00;;;3.60;;
76597;SDS011;65486;53.144;18.134;2023-04-24T13:13:49;8.30;;;4.10;;
76597;SDS011;65486;53.144;18.134;2023-04-24T13:16:17;7.90;;;4.30;;
76597;SDS011;65486;53.144;18.134;2023-04-24T13:18:45;5.50;;;4.30;;
76597;SDS011;65486;53.144;18.134;2023-04-24T13:21:12;10.70;;;3.30;;
76597;SDS011;65486;53.144;18.134;2023-04-24T13:23:40;8.50;;;4.00;;
76597;SDS011;65486;53.144;18.134;2023-04-24T13:26:07;7.00;;;4.20;;
76597;SDS011;65486;53.144;18.134;2023-04-24T13:28:42;7.00;;;4.10;;
76597;SDS011;65486;53.144;18.134;2023-04-24T13:31:09;6.20;;;4.50;;
76597;SDS011;65486;53.144;18.134;2023-04-24T13:33:37;6.50;;;4.30;;
76597;SDS011;65486;53.144;18.134;2023-04-24T13:36:05;7.50;;;5.30;;
76597;SDS011;65486;53.144;18.134;2023-04-24T13:38:34;9.30;;;5.90;;
76597;SDS011;65486;53.144;18.134;2023-04-24T13:41:02;7.40;;;6.00;;
76597;SDS011;65486;53.144;18.134;2023-04-24T13:43:29;9.60;;;6.80;;
76597;SDS011;65486;53.144;18.134;2023-04-24T13:45:58;9.20;;;5.20;;
76597;SDS011;65486;53.144;18.134;2023-04-24T13:48:44;11.00;;;7.10;;
76597;SDS011;65486;53.144;18.134;2023-04-24T13:51:28;8.80;;;5.80;;
76597;SDS011;65486;53.144;18.134;2023-04-24T13:53:58;10.50;;;5.70;;
76597;SDS011;65486;53.144;18.134;2023-04-24T13:56:30;10.00;;;7.30;;
76597;SDS011;65486;53.144;18.134;2023-04-24T13:58:57;9.60;;;6.10;;
76597;SDS011;65486;53.144;18.134;2023-04-24T14:01:24;8.30;;;5.60;;
76597;SDS011;65486;53.144;18.134;2023-04-24T14:03:52;10.90;;;7.50;;
76597;SDS011;65486;53.144;18.134;2023-04-24T14:06:20;10.50;;;7.50;;
76597;SDS011;65486;53.144;18.134;2023-04-24T14:08:58;10.90;;;6.90;;
76597;SDS011;65486;53.144;18.134;2023-04-24T14:11:27;10.90;;;7.10;;
76597;SDS011;65486;53.144;18.134;2023-04-24T14:13:56;11.30;;;6.60;;
76597;SDS011;65486;53.144;18.134;2023-04-24T14:16:32;8.40;;;6.30;;
76597;SDS011;65486;53.144;18.134;2023-04-24T14:19:03;8.50;;;7.00;;
76597;SDS011;65486;53.144;18.134;2023-04-24T14:21:42;9.80;;;5.60;;
76597;SDS011;65486;53.144;18.134;2023-04-24T14:24:11;9.90;;;5.10;;
76597;SDS011;65486;53.144;18.134;2023-04-24T14:26:39;7.10;;;4.90;;
76597;SDS011;65486;53.144;18.134;2023-04-24T14:29:18;6.50;;;4.80;;
76597;SDS011;65486;53.144;18.134;2023-04-24T14:31:47;9.00;;;5.00;;
76597;SDS011;65486;53.144;18.134;2023-04-24T14:34:18;5.60;;;4.30;;
76597;SDS011;65486;53.144;18.134;2023-04-24T14:36:49;6.20;;;4.30;;
76597;SDS011;65486;53.144;18.134;2023-04-24T14:39:17;7.00;;;4.50;;
76597;SDS011;65486;53.144;18.134;2023-04-24T14:41:44;6.30;;;4.50;;
76597;SDS011;65486;53.144;18.134;2023-04-24T14:44:15;7.00;;;4.70;;
76597;SDS011;65486;53.144;18.134;2023-04-24T14:46:51;5.70;;;3.80;;
76597;SDS011;65486;53.144;18.134;2023-04-24T14:49:37;5.50;;;4.20;;
76597;SDS011;65486;53.144;18.134;2023-04-24T14:52:06;7.00;;;4.60;;
76597;SDS011;65486;53.144;18.134;2023-04-24T14:54:33;6.30;;;4.90;;